Terminal Aerodrome Forecast
Issued by NWS Lake Charles, LA

Home | Current Version | Previous Version | Text Only | Print | Product List | Glossary On
Versions: 1 2 3 4 5 6 7 8 9 10 11 12
000
FTUS44 KLCH 241100
TAFARA
TAF
KARA 241122Z 2412/2512 VRB03KT P6SM FEW025
      TEMPO 2412/2413 5SM BR
     FM241600 VRB04KT P6SM VCSH BKN040
     FM250200 00000KT P6SM SCT060 BKN200=

USA.gov is the U.S. government's official web portal to all federal, state and local government web resources and services.